Time;durP1;ratioP1;P1;durP2;ratioP2;P2;SDS_P1;SDS_P2;PMS_P1;PMS_P2;Temp;Humidity;BMP_temperature;BMP_pressure;BME280_temperature;BME280_humidity;BME280_pressure;Samples;Min_cycle;Max_cycle;Signal;HPM_P1;HPM_P2
2023/03/21 00:01:04;;;;;;;20.95;8.02;;;6.70;99.90;;;;;;5053811;28;20192;-61
2023/03/21 00:03:32;;;;;;;21.58;8.25;;;6.80;99.90;;;;;;5040489;28;20038;-61
2023/03/21 00:05:58;;;;;;;18.52;7.97;;;6.80;99.90;;;;;;5041362;28;20049;-59
2023/03/21 00:08:25;;;;;;;29.48;9.57;;;6.80;99.90;;;;;;5037868;28;20310;-60
2023/03/21 00:10:58;;;;;;;32.08;10.60;;;6.80;99.90;;;;;;5047069;28;20135;-61
2023/03/21 00:13:25;;;;;;;26.63;10.02;;;6.80;99.90;;;;;;5040997;28;20041;-60
2023/03/21 00:15:53;;;;;;;22.55;8.85;;;6.80;99.90;;;;;;5038667;28;20068;-63
2023/03/21 00:18:23;;;;;;;24.88;9.52;;;6.80;99.90;;;;;;5028311;28;20042;-57
2023/03/21 00:21:00;;;;;;;25.73;9.48;;;6.80;99.90;;;;;;5040570;28;20076;-62
2023/03/21 00:23:26;;;;;;;22.80;10.65;;;6.90;99.90;;;;;;5027722;28;20073;-62
2023/03/21 00:25:52;;;;;;;30.38;10.18;;;6.90;99.90;;;;;;5052980;28;20098;-60
2023/03/21 00:28:18;;;;;;;24.65;9.23;;;6.90;99.90;;;;;;5030069;28;20107;-62
2023/03/21 00:30:44;;;;;;;34.65;10.85;;;6.90;99.90;;;;;;5033551;28;20040;-61
2023/03/21 00:33:11;;;;;;;;;;;6.90;99.90;;;;;;5032418;28;20044;-62
2023/03/21 00:35:38;;;;;;;19.15;7.43;;;6.90;99.90;;;;;;5034182;28;20346;-61
2023/03/21 00:38:03;;;;;;;22.15;7.53;;;7.00;99.90;;;;;;5032913;28;20038;-60
2023/03/21 00:40:29;;;;;;;20.90;7.75;;;7.00;99.90;;;;;;5024560;28;20040;-60
2023/03/21 00:42:54;;;;;;;22.08;8.35;;;7.00;99.90;;;;;;5026670;28;20034;-62
2023/03/21 00:45:20;;;;;;;26.58;9.88;;;7.00;99.90;;;;;;5020597;28;20099;-61
2023/03/21 00:47:47;;;;;;;21.85;8.50;;;7.00;99.90;;;;;;5026479;28;20037;-62
2023/03/21 00:50:12;;;;;;;29.35;9.98;;;7.00;99.90;;;;;;5023583;28;20044;-63
2023/03/21 00:52:38;;;;;;;29.35;10.70;;;7.00;99.90;;;;;;5029595;28;20041;-62
2023/03/21 00:55:04;;;;;;;;;;;7.00;99.90;;;;;;5023357;28;20063;-63
2023/03/21 00:57:30;;;;;;;29.00;9.47;;;7.00;99.90;;;;;;5038049;28;20573;-62
2023/03/21 00:59:57;;;;;;;25.60;9.65;;;7.00;99.90;;;;;;5026772;28;20044;-63
2023/03/21 01:02:25;;;;;;;36.17;10.75;;;7.00;99.90;;;;;;5037533;28;20037;-63
2023/03/21 01:04:52;;;;;;;27.23;10.18;;;7.00;99.90;;;;;;5024800;28;20094;-59
2023/03/21 01:07:18;;;;;;;25.75;9.95;;;7.00;99.90;;;;;;5029509;28;20029;-62
2023/03/21 01:09:44;;;;;;;31.23;11.93;;;7.00;99.90;;;;;;5021838;28;20107;-62
2023/03/21 01:12:10;;;;;;;;;;;7.00;99.90;;;;;;5026389;28;20067;-63
2023/03/21 01:14:35;;;;;;;31.00;10.27;;;7.00;99.90;;;;;;5024616;28;20516;-62
2023/03/21 01:17:01;;;;;;;22.05;10.25;;;7.00;99.90;;;;;;5027934;28;20034;-62
2023/03/21 01:19:28;;;;;;;29.20;12.25;;;7.00;99.90;;;;;;5020581;28;20045;-62
2023/03/21 01:21:54;;;;;;;30.15;9.80;;;7.10;99.90;;;;;;5035974;28;20526;-63
2023/03/21 01:24:20;;;;;;;25.58;9.82;;;7.10;99.90;;;;;;5020970;28;20041;-63
2023/03/21 01:26:46;;;;;;;;;;;7.10;99.90;;;;;;5033615;28;20044;-63
2023/03/21 01:29:11;;;;;;;29.90;11.25;;;7.10;99.90;;;;;;5020338;28;20404;-63
2023/03/21 01:31:37;;;;;;;;;;;7.10;99.90;;;;;;5025374;28;20038;-61
2023/03/21 01:34:02;;;;;;;24.05;10.70;;;7.10;99.90;;;;;;5020681;28;19925;-61
2023/03/21 01:36:28;;;;;;;;;;;7.10;99.90;;;;;;5025786;28;20037;-56
2023/03/21 01:38:54;;;;;;;29.27;11.25;;;7.10;99.90;;;;;;5021658;28;19925;-62
2023/03/21 01:41:34;;;;;;;29.63;10.52;;;7.10;99.90;;;;;;5026477;28;20033;-61
2023/03/21 01:44:00;;;;;;;34.22;10.93;;;7.10;99.90;;;;;;5020251;28;20056;-58
2023/03/21 01:46:41;;;;;;;29.05;11.05;;;7.10;99.90;;;;;;5028066;28;20041;-57
2023/03/21 01:49:14;;;;;;;28.70;11.50;;;7.10;99.90;;;;;;5020453;28;20044;-59
2023/03/21 01:51:54;;;;;;;20.75;9.95;;;7.10;99.90;;;;;;5025125;28;20042;-62
2023/03/21 01:54:36;;;;;;;32.05;10.75;;;7.10;99.90;;;;;;5016784;28;20069;-61
2023/03/21 01:57:07;;;;;;;23.05;11.18;;;7.20;99.90;;;;;;5024928;28;20037;-63
2023/03/21 01:59:37;;;;;;;23.65;12.02;;;7.10;99.90;;;;;;5016829;28;20137;-61
2023/03/21 02:02:06;;;;;;;20.00;10.68;;;7.10;99.90;;;;;;5024334;28;20128;-61
2023/03/21 02:04:37;;;;;;;25.70;11.20;;;7.10;99.90;;;;;;5019304;28;20048;-64
2023/03/21 02:07:16;;;;;;;25.15;12.77;;;7.20;99.90;;;;;;5024279;28;20103;-62
2023/03/21 02:09:46;;;;;;;20.25;11.75;;;7.20;99.90;;;;;;5017597;28;20041;-62
2023/03/21 02:12:12;;;;;;;28.65;11.80;;;7.20;99.90;;;;;;5024617;28;20041;-62
2023/03/21 02:14:38;;;;;;;;;;;7.20;99.90;;;;;;5021015;28;20574;-64
2023/03/21 02:17:23;;;;;;;27.55;13.77;;;7.20;99.90;;;;;;5021580;28;19983;-63
2023/03/21 02:20:15;;;;;;;23.83;11.77;;;7.30;99.90;;;;;;5020428;28;20052;-63
2023/03/21 02:22:52;;;;;;;28.77;13.88;;;7.30;99.90;;;;;;5016597;28;20132;-60
2023/03/21 02:25:33;;;;;;;39.95;13.63;;;7.20;99.90;;;;;;5021928;28;20119;-61
2023/03/21 02:28:13;;;;;;;33.78;14.10;;;7.20;99.90;;;;;;5025431;28;20477;-63
2023/03/21 02:31:11;;;;;;;34.22;15.30;;;7.20;99.90;;;;;;5020312;28;20048;-63
2023/03/21 02:33:57;;;;;;;36.13;15.98;;;7.20;99.90;;;;;;5018796;28;20085;-62
2023/03/21 02:36:49;;;;;;;32.90;14.52;;;7.20;99.90;;;;;;5024798;28;20045;-63
2023/03/21 02:39:58;;;;;;;45.45;16.15;;;7.20;99.90;;;;;;5018982;28;20045;-61
2023/03/21 02:42:24;;;;;;;39.83;15.02;;;7.20;99.90;;;;;;5008633;28;20042;-61
2023/03/21 02:44:59;;;;;;;41.20;16.23;;;7.20;99.90;;;;;;5020529;28;20656;-63
2023/03/21 02:47:46;;;;;;;30.25;13.55;;;7.20;99.90;;;;;;5024651;28;20085;-62
2023/03/21 02:50:15;;;;;;;;;;;7.20;99.90;;;;;;5018657;28;20095;-63
2023/03/21 02:52:45;;;;;;;32.72;13.90;;;7.20;99.90;;;;;;5024166;28;20628;-63
2023/03/21 02:55:14;;;;;;;36.22;13.95;;;7.20;99.90;;;;;;5018869;28;20100;-60
2023/03/21 02:57:43;;;;;;;31.75;14.40;;;7.20;99.90;;;;;;5023672;28;20540;-62
2023/03/21 03:00:13;;;;;;;39.60;15.10;;;7.20;99.90;;;;;;5020085;28;20045;-61
2023/03/21 03:02:40;;;;;;;41.55;15.57;;;7.20;99.90;;;;;;5023372;28;20056;-61
2023/03/21 03:05:25;;;;;;;38.28;15.65;;;7.20;99.90;;;;;;5019302;28;20040;-63
2023/03/21 03:08:12;;;;;;;34.83;16.17;;;7.20;99.90;;;;;;5023077;28;20038;-61
2023/03/21 03:10:46;;;;;;;;;;;7.20;99.90;;;;;;5021324;28;20037;-61
2023/03/21 03:13:38;;;;;;;44.05;16.02;;;7.20;99.90;;;;;;5023242;28;20697;-61
2023/03/21 03:16:27;;;;;;;42.60;16.27;;;7.20;99.90;;;;;;5021035;28;20568;-60
2023/03/21 03:19:00;;;;;;;42.13;16.67;;;7.20;99.90;;;;;;5019330;28;20564;-62
2023/03/21 03:21:41;;;;;;;42.25;17.80;;;7.10;99.90;;;;;;5024810;28;20033;-61
2023/03/21 03:24:15;;;;;;;36.00;15.70;;;7.10;99.90;;;;;;5017266;28;20038;-62
2023/03/21 03:26:45;;;;;;;50.78;17.58;;;7.10;99.90;;;;;;5024357;28;20696;-63
2023/03/21 03:29:17;;;;;;;41.08;16.77;;;7.10;99.90;;;;;;5019782;28;20061;-63
2023/03/21 03:31:57;;;;;;;45.03;17.23;;;7.10;99.90;;;;;;5022931;28;20145;-62
2023/03/21 03:34:31;;;;;;;40.95;18.25;;;7.20;99.90;;;;;;5019407;28;20046;-61
2023/03/21 03:37:03;;;;;;;46.45;17.95;;;7.20;99.90;;;;;;5023772;28;20041;-62
2023/03/21 03:40:07;;;;;;;38.50;18.20;;;7.20;99.90;;;;;;5019537;28;20080;-61
2023/03/21 03:42:59;;;;;;;44.92;18.20;;;7.20;99.90;;;;;;5024421;28;20680;-63
2023/03/21 03:45:32;;;;;;;51.00;19.23;;;7.20;99.90;;;;;;5019125;28;20648;-62
2023/03/21 03:48:24;;;;;;;66.18;25.05;;;7.30;99.90;;;;;;5023742;28;20041;-62
2023/03/21 03:50:49;;;;;;;59.15;25.27;;;7.30;99.90;;;;;;5022235;28;20532;-62
2023/03/21 03:53:25;;;;;;;60.15;22.35;;;7.30;99.90;;;;;;5023393;28;20065;-62
2023/03/21 03:55:53;;;;;;;;;;;7.30;99.90;;;;;;5026496;28;20071;-61
2023/03/21 03:58:20;;;;;;;63.22;23.95;;;7.30;99.90;;;;;;5025602;28;19921;-61
2023/03/21 04:00:46;;;;;;;69.65;24.17;;;7.30;99.90;;;;;;5023030;28;20041;-61
2023/03/21 04:03:12;;;;;;;64.50;25.20;;;7.30;99.90;;;;;;5026489;28;20052;-63
2023/03/21 04:05:37;;;;;;;61.15;23.15;;;7.30;99.90;;;;;;5022899;28;20066;-62
2023/03/21 04:08:03;;;;;;;58.55;21.85;;;7.30;99.90;;;;;;5026205;28;20033;-61
2023/03/21 04:10:29;;;;;;;52.78;22.10;;;7.40;99.90;;;;;;5024599;28;20405;-61
2023/03/21 04:12:55;;;;;;;50.55;21.92;;;7.40;99.90;;;;;;5027842;28;20564;-61
2023/03/21 04:15:20;;;;;;;;;;;7.40;99.90;;;;;;5023097;28;20029;-61
2023/03/21 04:17:46;;;;;;;49.58;19.75;;;7.50;99.90;;;;;;5026723;28;19916;-58
2023/03/21 04:20:12;;;;;;;48.28;21.17;;;7.40;99.90;;;;;;5025915;28;20056;-63
2023/03/21 04:22:38;;;;;;;53.00;20.17;;;7.50;99.90;;;;;;5027038;28;20045;-60
2023/03/21 04:25:04;;;;;;;;;;;7.40;99.90;;;;;;5025044;28;20037;-60
2023/03/21 04:27:31;;;;;;;53.63;20.33;;;7.40;99.90;;;;;;5026917;28;20011;-62
2023/03/21 04:29:57;;;;;;;52.95;20.90;;;7.40;99.90;;;;;;5024034;28;20056;-61
2023/03/21 04:32:25;;;;;;;60.17;19.02;;;7.30;99.90;;;;;;5025996;28;20442;-62
2023/03/21 04:34:52;;;;;;;41.22;17.52;;;7.40;99.90;;;;;;5022116;28;20044;-61
2023/03/21 04:37:22;;;;;;;36.63;16.27;;;7.30;99.90;;;;;;5026393;28;20045;-62
2023/03/21 04:39:48;;;;;;;39.60;15.85;;;7.40;99.90;;;;;;5023212;28;20049;-59
2023/03/21 04:42:17;;;;;;;38.97;14.98;;;7.40;99.90;;;;;;5026883;28;20045;-60
2023/03/21 04:44:46;;;;;;;44.55;16.63;;;7.30;99.90;;;;;;5021983;28;20371;-60
2023/03/21 04:47:14;;;;;;;44.03;14.68;;;7.40;99.90;;;;;;5025618;28;20135;-61
2023/03/21 04:49:41;;;;;;;40.90;14.93;;;7.40;99.90;;;;;;5023396;28;20053;-62
2023/03/21 04:52:06;;;;;;;38.65;15.93;;;7.40;99.90;;;;;;5027941;28;20052;-62
2023/03/21 04:54:32;;;;;;;;;;;7.40;99.90;;;;;;5022541;28;20038;-62
2023/03/21 04:56:58;;;;;;;34.95;15.20;;;7.40;99.90;;;;;;5026730;28;20449;-62
2023/03/21 04:59:23;;;;;;;;;;;7.40;99.90;;;;;;5022639;28;20034;-61
2023/03/21 05:01:49;;;;;;;33.50;14.00;;;7.40;99.90;;;;;;5025651;28;20451;-63
2023/03/21 05:04:15;;;;;;;;;;;7.40;99.90;;;;;;5022048;28;20124;-62
2023/03/21 05:06:41;;;;;;;29.75;13.70;;;7.40;99.90;;;;;;5024762;28;19932;-63
2023/03/21 05:09:07;;;;;;;28.17;13.82;;;7.40;99.90;;;;;;5020731;28;20125;-61
2023/03/21 05:11:36;;;;;;;33.72;14.93;;;7.40;99.90;;;;;;5025969;28;20613;-61
2023/03/21 05:14:03;;;;;;;36.65;13.55;;;7.40;99.90;;;;;;5020988;28;20065;-61
2023/03/21 05:16:29;;;;;;;28.95;14.25;;;7.40;99.90;;;;;;5029801;28;20509;-62
2023/03/21 05:19:02;;;;;;;28.08;12.88;;;7.30;99.90;;;;;;5023227;28;20042;-63
2023/03/21 05:21:28;;;;;;;30.10;13.57;;;7.40;99.90;;;;;;5025909;28;20144;-60
2023/03/21 05:23:57;;;;;;;30.58;14.05;;;7.30;99.90;;;;;;5020950;28;20049;-62
2023/03/21 05:26:23;;;;;;;32.90;13.23;;;7.30;99.90;;;;;;5025463;28;20117;-62
2023/03/21 05:28:50;;;;;;;30.85;14.15;;;7.30;99.90;;;;;;5021034;28;20066;-60
2023/03/21 05:31:19;;;;;;;35.90;14.27;;;7.30;99.90;;;;;;5025469;28;20128;-58
2023/03/21 05:33:45;;;;;;;30.58;13.15;;;7.30;99.90;;;;;;5021574;28;20119;-59
2023/03/21 05:36:12;;;;;;;34.92;15.35;;;7.30;99.90;;;;;;5025471;28;20045;-60
2023/03/21 05:38:41;;;;;;;29.25;13.73;;;7.30;99.90;;;;;;5021198;28;20156;-60
2023/03/21 05:41:07;;;;;;;30.70;13.20;;;7.30;99.90;;;;;;5022528;28;20045;-63
2023/03/21 05:43:33;;;;;;;34.90;14.30;;;7.30;99.90;;;;;;5020694;28;20045;-61
2023/03/21 05:45:58;;;;;;;;;;;7.40;99.90;;;;;;5025201;28;20073;-62
2023/03/21 05:48:24;;;;;;;31.85;11.70;;;7.40;99.90;;;;;;5022994;28;20059;-60
2023/03/21 05:50:49;;;;;;;28.73;13.73;;;7.40;99.90;;;;;;5023940;28;20061;-62
2023/03/21 05:53:15;;;;;;;;;;;7.40;99.90;;;;;;5023961;28;20045;-59
2023/03/21 05:55:40;;;;;;;31.45;13.40;;;7.40;99.90;;;;;;5023027;28;19924;-63
2023/03/21 05:58:06;;;;;;;;;;;7.40;99.90;;;;;;5025923;28;20448;-61
2023/03/21 06:00:32;;;;;;;31.88;12.88;;;7.40;99.90;;;;;;5019399;28;19960;-58
2023/03/21 06:02:57;;;;;;;25.88;12.75;;;7.40;99.90;;;;;;5025562;28;20111;-61
2023/03/21 06:05:23;;;;;;;32.72;13.27;;;7.40;99.90;;;;;;5022740;28;20519;-62
2023/03/21 06:07:48;;;;;;;;;;;7.40;99.90;;;;;;5023844;28;20041;-61
2023/03/21 06:10:14;;;;;;;28.48;13.63;;;7.40;99.90;;;;;;5021565;28;19983;-63
2023/03/21 06:12:41;;;;;;;34.92;13.93;;;7.40;99.90;;;;;;5024779;28;20053;-63
2023/03/21 06:15:08;;;;;;;34.67;15.02;;;7.40;99.90;;;;;;5015781;28;20402;-61
2023/03/21 06:17:33;;;;;;;29.48;14.70;;;7.40;99.90;;;;;;5024813;28;20075;-62
2023/03/21 06:20:03;;;;;;;;;;;7.50;99.90;;;;;;5020291;28;20041;-62
2023/03/21 06:22:29;;;;;;;34.13;14.32;;;7.50;99.90;;;;;;5023141;28;20008;-62
2023/03/21 06:24:55;;;;;;;38.50;15.10;;;7.60;99.90;;;;;;5019984;28;20069;-61
2023/03/21 06:27:21;;;;;;;;;;;7.70;99.90;;;;;;5025134;28;20069;-61
2023/03/21 06:29:47;;;;;;;31.75;13.98;;;7.70;99.90;;;;;;5020949;28;19921;-63
2023/03/21 06:32:12;;;;;;;36.03;15.15;;;7.80;99.90;;;;;;5023937;28;20712;-61
2023/03/21 06:34:38;;;;;;;;;;;7.70;99.90;;;;;;5019827;28;20040;-62
2023/03/21 06:37:04;;;;;;;27.42;13.15;;;7.70;99.90;;;;;;5024475;28;19927;-60
2023/03/21 06:39:31;;;;;;;34.53;15.32;;;7.70;99.90;;;;;;5016432;28;20064;-62
2023/03/21 06:41:57;;;;;;;32.13;13.23;;;7.70;99.90;;;;;;5024302;28;20038;-63
2023/03/21 06:44:23;;;;;;;;;;;7.80;99.90;;;;;;5020237;28;20091;-62
2023/03/21 06:46:49;;;;;;;25.63;11.85;;;8.00;99.90;;;;;;5022100;28;19932;-64
2023/03/21 06:49:15;;;;;;;34.53;13.63;;;8.20;99.90;;;;;;5019874;28;20049;-63
2023/03/21 06:51:41;;;;;;;31.08;13.82;;;8.40;99.90;;;;;;5023823;28;20041;-62
2023/03/21 06:54:07;;;;;;;;;;;8.50;99.90;;;;;;5018828;28;20083;-63
2023/03/21 06:56:32;;;;;;;29.77;11.07;;;8.70;99.90;;;;;;5025366;28;19925;-64
2023/03/21 06:58:58;;;;;;;38.90;12.30;;;8.80;99.90;;;;;;5019338;28;20081;-63
2023/03/21 07:01:26;;;;;;;27.10;10.35;;;8.90;99.90;;;;;;5024144;28;20460;-64
2023/03/21 07:03:52;;;;;;;24.40;10.50;;;9.00;99.90;;;;;;5019924;28;20072;-63
2023/03/21 07:06:18;;;;;;;23.08;10.73;;;9.10;99.90;;;;;;5024955;28;20493;-63
2023/03/21 07:08:46;;;;;;;;;;;9.10;99.90;;;;;;5020562;28;20065;-64
2023/03/21 07:11:12;;;;;;;34.03;10.85;;;9.10;99.90;;;;;;5024932;28;19917;-61
2023/03/21 07:13:37;;;;;;;;;;;9.20;99.90;;;;;;5021792;28;20037;-62
2023/03/21 07:16:04;;;;;;;24.42;10.25;;;9.20;99.90;;;;;;5025653;28;19916;-64
2023/03/21 07:18:29;;;;;;;22.48;10.20;;;9.20;99.90;;;;;;5022588;28;20041;-63
2023/03/21 07:20:55;;;;;;;;;;;9.20;99.90;;;;;;5025377;28;20068;-61
2023/03/21 07:23:22;;;;;;;31.30;11.30;;;9.20;99.90;;;;;;5022426;28;20043;-63
2023/03/21 07:25:49;;;;;;;24.58;9.95;;;9.60;99.90;;;;;;5023090;28;20081;-64
2023/03/21 07:28:15;;;;;;;29.00;9.15;;;10.00;99.90;;;;;;5026164;28;20041;-63
2023/03/21 07:30:42;;;;;;;26.85;9.50;;;10.60;99.90;;;;;;5026343;28;20041;-63
2023/03/21 07:33:07;;;;;;;23.73;9.23;;;10.90;99.90;;;;;;5028038;28;20042;-63
2023/03/21 07:35:33;;;;;;;;;;;11.00;99.90;;;;;;5027873;28;20029;-62
2023/03/21 07:37:58;;;;;;;23.40;9.02;;;11.10;99.90;;;;;;5027861;28;19921;-55
2023/03/21 07:40:25;;;;;;;25.20;9.20;;;11.40;99.90;;;;;;5025289;28;20069;-60
2023/03/21 07:42:50;;;;;;;21.98;9.90;;;11.40;99.90;;;;;;5030194;28;20045;-60
2023/03/21 07:45:19;;;;;;;;;;;11.30;99.90;;;;;;5027322;28;20116;-62
2023/03/21 07:47:46;;;;;;;21.38;9.05;;;11.20;99.90;;;;;;5028508;28;19929;-62
2023/03/21 07:50:12;;;;;;;23.25;7.93;;;11.00;99.90;;;;;;5025367;28;20037;-61
2023/03/21 07:52:38;;;;;;;25.90;9.80;;;11.00;99.90;;;;;;5028672;28;20037;-60
2023/03/21 07:55:04;;;;;;;;;;;10.70;99.90;;;;;;5024275;28;20036;-63
2023/03/21 07:57:30;;;;;;;23.80;8.02;;;10.60;99.90;;;;;;5028769;28;19916;-57
2023/03/21 07:59:55;;;;;;;;;;;10.60;99.90;;;;;;5025380;28;20053;-61
2023/03/21 08:02:21;;;;;;;20.80;7.82;;;10.60;99.90;;;;;;5028053;28;19924;-62
2023/03/21 08:04:46;;;;;;;;;;;10.50;99.90;;;;;;5027826;28;20575;-62
2023/03/21 08:07:12;;;;;;;19.20;9.00;;;10.60;99.90;;;;;;5028420;28;19925;-62
2023/03/21 08:09:39;;;;;;;;;;;10.50;99.90;;;;;;5025230;28;20033;-62
2023/03/21 08:12:07;;;;;;;24.45;10.02;;;10.50;99.90;;;;;;5028873;28;19917;-62
2023/03/21 08:14:33;;;;;;;22.88;9.05;;;10.40;99.90;;;;;;5030413;28;20045;-62
2023/03/21 08:16:58;;;;;;;;;;;10.30;99.90;;;;;;5041609;28;20083;-63
2023/03/21 08:19:25;;;;;;;23.10;9.02;;;10.20;99.90;;;;;;5024897;28;19917;-64
2023/03/21 08:21:51;;;;;;;20.40;8.95;;;10.10;99.90;;;;;;5028908;28;20112;-63
2023/03/21 08:24:18;;;;;;;25.58;9.25;;;10.00;99.90;;;;;;5028205;28;20038;-62
2023/03/21 08:26:44;;;;;;;25.52;9.27;;;10.00;99.90;;;;;;5049939;28;20119;-63
2023/03/21 08:29:11;;;;;;;20.35;8.60;;;10.10;99.90;;;;;;5030471;28;20037;-64
2023/03/21 08:31:39;;;;;;;24.40;8.50;;;10.00;99.90;;;;;;5033382;28;20608;-62
2023/03/21 08:34:06;;;;;;;23.65;8.88;;;10.30;99.90;;;;;;5023670;28;20433;-61
2023/03/21 08:36:32;;;;;;;24.23;9.85;;;10.30;99.90;;;;;;5029165;28;20041;-63
2023/03/21 08:39:04;;;;;;;;;;;10.30;99.90;;;;;;5026930;28;20043;-63
2023/03/21 08:41:33;;;;;;;24.52;7.93;;;10.30;99.90;;;;;;5029137;28;19924;-60
2023/03/21 08:43:59;;;;;;;23.63;8.90;;;10.30;99.90;;;;;;5024575;28;20052;-62
2023/03/21 08:46:25;;;;;;;;;;;10.40;99.90;;;;;;5037018;28;20045;-61
2023/03/21 08:48:51;;;;;;;22.98;8.55;;;10.30;99.90;;;;;;5027707;28;19921;-61
2023/03/21 08:51:17;;;;;;;22.67;8.18;;;10.30;99.90;;;;;;5028643;28;20036;-62
2023/03/21 08:53:42;;;;;;;;;;;10.30;99.90;;;;;;5022532;28;20045;-63
2023/03/21 08:56:09;;;;;;;17.45;7.72;;;10.30;99.90;;;;;;5028180;28;19921;-62
2023/03/21 08:58:35;;;;;;;19.48;7.88;;;10.40;99.90;;;;;;5027345;28;20029;-62
2023/03/21 09:01:02;;;;;;;20.17;8.70;;;10.40;99.90;;;;;;5034469;28;20086;-62
2023/03/21 09:03:29;;;;;;;21.98;8.98;;;10.40;99.90;;;;;;5020658;28;20041;-62
2023/03/21 09:05:55;;;;;;;18.73;7.22;;;10.30;99.90;;;;;;5026780;28;20049;-63
2023/03/21 09:08:22;;;;;;;20.48;6.13;;;10.20;99.90;;;;;;5026320;28;20421;-63
2023/03/21 09:10:54;;;;;;;28.23;6.82;;;10.20;99.90;;;;;;5028426;28;20041;-60
2023/03/21 09:13:20;;;;;;;18.00;7.47;;;10.20;99.90;;;;;;5026104;28;20397;-62
2023/03/21 09:15:46;;;;;;;16.75;6.68;;;10.20;99.90;;;;;;5031274;28;20040;-61
2023/03/21 09:18:13;;;;;;;;;;;10.30;99.90;;;;;;5033602;28;20041;-59
2023/03/21 09:20:41;;;;;;;;;;;10.20;99.90;;;;;;5025668;28;19967;-63
2023/03/21 09:23:09;;;;;;;19.08;5.75;;;10.20;99.90;;;;;;5027510;28;19939;-62
2023/03/21 09:25:36;;;;;;;18.60;5.85;;;10.20;99.90;;;;;;5047269;28;20029;-62
2023/03/21 09:28:04;;;;;;;15.55;6.20;;;10.20;99.90;;;;;;5031218;28;20048;-60
2023/03/21 09:30:31;;;;;;;16.85;5.68;;;10.20;99.90;;;;;;5035047;28;20515;-63
2023/03/21 09:33:02;;;;;;;18.33;6.13;;;10.20;99.90;;;;;;5031466;28;20055;-63
2023/03/21 09:35:28;;;;;;;14.90;5.57;;;10.10;99.90;;;;;;5025858;28;20796;-62
2023/03/21 09:37:58;;;;;;;13.25;5.60;;;10.10;99.90;;;;;;5027236;28;20457;-63
2023/03/21 09:40:47;;;;;;;17.08;5.82;;;10.10;99.90;;;;;;5024103;28;20057;-63
2023/03/21 09:43:21;;;;;;;15.95;6.15;;;10.10;99.90;;;;;;5026155;28;20105;-62
2023/03/21 09:45:59;;;;;;;16.05;6.03;;;10.00;99.90;;;;;;5040218;28;20047;-61
2023/03/21 09:48:58;;;;;;;24.65;6.85;;;9.90;99.90;;;;;;5024439;28;20091;-61
2023/03/21 09:51:47;;;;;;;15.00;6.85;;;9.90;99.90;;;;;;5026440;28;20705;-59
2023/03/21 09:54:29;;;;;;;17.75;6.75;;;9.80;99.90;;;;;;5020626;28;20409;-64
2023/03/21 09:57:00;;;;;;;17.15;6.93;;;9.80;99.90;;;;;;5027100;28;20674;-58
2023/03/21 09:59:38;;;;;;;17.80;6.80;;;9.80;99.90;;;;;;5025733;28;20049;-62
2023/03/21 10:02:34;;;;;;;17.10;6.88;;;9.80;99.90;;;;;;5026139;28;20087;-63
2023/03/21 10:05:05;;;;;;;17.85;7.57;;;9.80;99.90;;;;;;5019563;28;20068;-64
2023/03/21 10:07:37;;;;;;;18.25;6.28;;;9.70;99.90;;;;;;5019057;28;20390;-65
2023/03/21 10:10:03;;;;;;;23.88;8.18;;;9.80;99.90;;;;;;5019142;28;20037;-64
2023/03/21 10:12:30;;;;;;;17.15;7.43;;;9.70;99.90;;;;;;5026650;28;20042;-63
2023/03/21 10:14:57;;;;;;;17.90;6.68;;;9.70;99.90;;;;;;5020002;28;20030;-62
2023/03/21 10:17:30;;;;;;;21.40;6.75;;;9.60;99.90;;;;;;5033454;28;20056;-64
2023/03/21 10:20:13;;;;;;;17.05;6.80;;;9.50;99.90;;;;;;5024696;28;20045;-61
2023/03/21 10:22:39;;;;;;;17.70;7.22;;;9.50;99.90;;;;;;5023690;28;20763;-63
2023/03/21 10:25:06;;;;;;;16.98;7.22;;;9.40;99.90;;;;;;5021028;28;20121;-63
2023/03/21 10:27:35;;;;;;;15.75;7.07;;;9.40;99.90;;;;;;5026202;28;20053;-64
2023/03/21 10:30:01;;;;;;;13.90;5.88;;;9.40;99.90;;;;;;5021122;28;20037;-63
2023/03/21 10:32:27;;;;;;;;;;;9.30;99.90;;;;;;5026004;28;20052;-62
2023/03/21 10:34:55;;;;;;;17.85;6.75;;;9.30;99.90;;;;;;5024433;28;20022;-63
2023/03/21 10:37:22;;;;;;;14.82;6.38;;;9.30;99.90;;;;;;5025856;28;20183;-62
2023/03/21 10:39:50;;;;;;;15.40;7.82;;;9.30;99.90;;;;;;5021735;28;20048;-63
2023/03/21 10:42:20;;;;;;;11.98;6.65;;;9.20;99.90;;;;;;5026084;28;20120;-62
2023/03/21 10:44:48;;;;;;;13.20;6.38;;;9.10;99.90;;;;;;5021949;28;20060;-64
2023/03/21 10:47:24;;;;;;;9.98;5.60;;;9.10;99.90;;;;;;5025320;28;20413;-63
2023/03/21 10:49:49;;;;;;;13.73;5.83;;;9.10;99.90;;;;;;5025051;28;20478;-62
2023/03/21 10:52:18;;;;;;;;;;;9.20;99.90;;;;;;5026442;28;20136;-63
2023/03/21 10:54:44;;;;;;;11.40;5.78;;;9.30;99.90;;;;;;5020555;28;19917;-63
2023/03/21 10:57:21;;;;;;;13.70;4.95;;;9.50;99.90;;;;;;5025837;28;20037;-64
2023/03/21 10:59:52;;;;;;;11.45;4.97;;;9.60;99.90;;;;;;5021672;28;20527;-64
2023/03/21 11:02:33;;;;;;;17.10;5.18;;;9.70;99.90;;;;;;5023233;28;20038;-61
2023/03/21 11:05:16;;;;;;;12.40;4.95;;;9.90;99.90;;;;;;5022262;28;20042;-63
2023/03/21 11:07:42;;;;;;;14.73;5.25;;;9.80;99.90;;;;;;5018725;28;20042;-63
2023/03/21 11:10:27;;;;;;;10.88;4.03;;;9.80;99.90;;;;;;5020993;28;20045;-62
2023/03/21 11:12:57;;;;;;;12.25;4.22;;;9.80;99.90;;;;;;5026823;28;20045;-63
2023/03/21 11:15:29;;;;;;;14.07;4.75;;;9.80;99.90;;;;;;5021521;28;20237;-64
2023/03/21 11:17:55;;;;;;;8.23;3.75;;;9.90;99.90;;;;;;5025951;28;20599;-62
2023/03/21 11:20:21;;;;;;;10.68;4.78;;;9.90;99.90;;;;;;5034185;28;20164;-64
2023/03/21 11:22:47;;;;;;;;;;;9.90;99.90;;;;;;5036088;28;20129;-62
2023/03/21 11:25:47;;;;;;;7.38;3.75;;;9.70;99.90;;;;;;5020601;28;19917;-62
2023/03/21 11:28:19;;;;;;;10.23;3.42;;;9.70;99.90;;;;;;5023467;28;20509;-62
2023/03/21 11:30:55;;;;;;;13.77;4.05;;;9.70;99.90;;;;;;5022126;28;20041;-62
2023/03/21 11:33:25;;;;;;;11.20;3.63;;;9.70;99.90;;;;;;5023945;28;20053;-63
2023/03/21 11:36:06;;;;;;;9.73;4.65;;;9.70;99.90;;;;;;5025138;28;20136;-63
2023/03/21 11:38:37;;;;;;;10.18;4.05;;;9.80;99.90;;;;;;5022228;28;20065;-64
2023/03/21 11:41:03;;;;;;;7.95;3.42;;;9.70;99.90;;;;;;5025127;28;20084;-62
2023/03/21 11:43:35;;;;;;;6.85;3.58;;;9.70;99.90;;;;;;5022411;28;20676;-63
2023/03/21 11:46:08;;;;;;;9.82;3.22;;;9.60;99.90;;;;;;5025209;28;20061;-62
2023/03/21 11:48:47;;;;;;;7.53;2.95;;;9.60;99.90;;;;;;5022457;28;20041;-64
2023/03/21 11:51:36;;;;;;;8.52;3.05;;;9.60;99.90;;;;;;5025308;28;20460;-64
2023/03/21 11:54:08;;;;;;;7.97;3.70;;;9.50;99.90;;;;;;5019787;28;20041;-61
2023/03/21 11:57:12;;;;;;;6.18;3.00;;;9.40;99.90;;;;;;5025111;28;20050;-64
2023/03/21 12:00:03;;;;;;;5.35;2.40;;;9.40;99.90;;;;;;5017827;28;20091;-58
2023/03/21 12:02:53;;;;;;;6.90;3.08;;;9.30;99.90;;;;;;5024601;28;20065;-62
2023/03/21 12:05:30;;;;;;;4.85;1.83;;;9.30;99.90;;;;;;5021267;28;20048;-64
2023/03/21 12:08:25;;;;;;;4.57;1.80;;;9.30;99.90;;;;;;5023917;28;20065;-64
2023/03/21 12:11:13;;;;;;;8.18;3.15;;;9.30;99.90;;;;;;5023958;28;20049;-64
2023/03/21 12:14:00;;;;;;;4.97;2.33;;;9.30;99.90;;;;;;5022768;28;20049;-61
2023/03/21 12:16:35;;;;;;;8.10;2.10;;;9.40;99.90;;;;;;5040534;28;20127;-61
2023/03/21 12:19:10;;;;;;;5.63;2.95;;;9.40;99.90;;;;;;5029432;28;20112;-64
2023/03/21 12:21:49;;;;;;;5.82;1.92;;;9.40;99.90;;;;;;5036662;28;20045;-63
2023/03/21 12:24:30;;;;;;;4.28;1.77;;;9.50;99.90;;;;;;5025794;28;20052;-63
2023/03/21 12:27:24;;;;;;;3.25;1.80;;;9.60;99.90;;;;;;5028260;28;20610;-61
2023/03/21 12:30:15;;;;;;;8.32;2.05;;;9.60;99.90;;;;;;5024453;28;20151;-64
2023/03/21 12:32:50;;;;;;;3.72;1.90;;;9.70;99.90;;;;;;5040728;28;20048;-64
2023/03/21 12:35:34;;;;;;;6.40;1.92;;;9.80;99.90;;;;;;5043414;28;20045;-64
2023/03/21 12:38:11;;;;;;;5.40;1.67;;;9.70;99.90;;;;;;5047151;28;20091;-64
2023/03/21 12:41:18;;;;;;;4.07;1.65;;;9.60;99.90;;;;;;5045638;28;20124;-63
2023/03/21 12:43:44;;;;;;;3.95;1.85;;;9.60;99.90;;;;;;5043248;28;20090;-65
2023/03/21 12:46:13;;;;;;;;;;;9.50;99.90;;;;;;5048774;28;20037;-63
2023/03/21 12:48:44;;;;;;;5.43;1.38;;;9.60;99.90;;;;;;5043258;28;19921;-63
2023/03/21 12:51:17;;;;;;;3.72;2.25;;;9.60;99.90;;;;;;5046292;28;20166;-64
2023/03/21 12:53:55;;;;;;;2.15;1.15;;;9.60;99.90;;;;;;5042216;28;20576;-62
2023/03/21 12:56:29;;;;;;;3.15;1.40;;;9.70;99.90;;;;;;5048329;28;20083;-63
2023/03/21 12:59:14;;;;;;;1.67;1.20;;;9.70;99.90;;;;;;5044328;28;20098;-62
2023/03/21 13:01:41;;;;;;;2.88;1.20;;;9.80;99.90;;;;;;5035513;28;20048;-64
2023/03/21 13:04:26;;;;;;;3.42;1.30;;;9.70;99.90;;;;;;5023263;28;20037;-62
2023/03/21 13:06:54;;;;;;;2.42;1.50;;;9.60;99.90;;;;;;5026954;28;20081;-63
2023/03/21 13:09:46;;;;;;;3.47;1.35;;;9.60;99.90;;;;;;5022751;28;20120;-58
2023/03/21 13:12:33;;;;;;;4.22;1.50;;;9.60;99.90;;;;;;5021243;28;20041;-60
2023/03/21 13:15:29;;;;;;;2.60;1.40;;;9.50;99.90;;;;;;5021960;28;20042;-62